Van Buren, Maine
Current Conditions -  °F | °C
As of 12:54 AM on Saturday 25 Oct 2014 (Local Time) from KCAR Reporting Station
Light Rain Light Rain  
Wind Chill: 34°   Ceiling: 3300
Heat Index: 41°   Visibility: 8mi
Dew Point: 38°   Wind: 13mph
Humidity: 89%   Direction: 360°N
Pressure: 29.64"   Gusts: NA
Location:  47.15°N, 67.94°W
Report Text: KCAR 250454Z AUTO 36011KT 8SM -RA OVC033 05/03 A2964 RMK AO2 RAB16E41B43 SLP047 P0000 T00500033 400610044 $
Loading
Personal Weather Stations






























Interactive Weather Map
Tropical Storm Tracking
New forecast layout! Learn more

10-Day Weather Forecast

Advertisements
Track Severe Weather on mobile